< < Back
Terminal Aerodrome Forecast


Current Version              Previous Versions:   1  2  3  4  5  6  7  8  9  

Terminal Aerodrome Forecast

592
FTUS44 KMRX 241721
TAFTYS
TAF
KTYS 241721Z 2418/2518 23022G35KT P6SM BKN040
     FM250000 24010KT P6SM SCT040
     FM250500 26005KT P6SM BKN150
     FM251500 26008KT P6SM SCT150=

Latest METAR

895
SAUS80 KWBC 242100
MTRTYS
METAR KTYS 242053Z 24016G24KT 10SM FEW065 21/07 A2974 RMK AO2 PK WND
21030/2015 SLP063 T02060067 53011


USA.gov is the U.S. government's official web portal to all federal, state and local government web resources and services.